Time;durP1;ratioP1;P1;durP2;ratioP2;P2;SDS_P1;SDS_P2;PMS_P1;PMS_P2;Temp;Humidity;BMP_temperature;BMP_pressure;BME280_temperature;BME280_humidity;BME280_pressure;Samples;Min_cycle;Max_cycle;Signal;HPM_P1;HPM_P2
2022/04/21 00:00:48;;;;;;;1.50;0.63;;;15.90;58.30;;;;;;5018797;28;20057;-75
2022/04/21 00:03:29;;;;;;;1.38;0.80;;;16.00;58.40;;;;;;5002102;28;20053;-75
2022/04/21 00:05:56;;;;;;;1.00;0.60;;;16.00;58.40;;;;;;5004512;28;20691;-75
2022/04/21 00:08:24;;;;;;;1.45;0.65;;;15.90;58.30;;;;;;5023817;28;20044;-75
2022/04/21 00:10:51;;;;;;;1.02;0.63;;;16.00;58.40;;;;;;5022601;28;20124;-75
2022/04/21 00:13:24;;;;;;;2.00;0.88;;;15.90;58.40;;;;;;5027396;28;20037;-75
2022/04/21 00:15:59;;;;;;;1.40;0.70;;;15.90;58.30;;;;;;5002982;28;20048;-75
2022/04/21 00:18:30;;;;;;;2.17;0.80;;;15.90;58.30;;;;;;5022832;28;20072;-75
2022/04/21 00:21:07;;;;;;;1.73;0.70;;;16.00;58.40;;;;;;5015932;28;20347;-76
2022/04/21 00:23:44;;;;;;;1.42;0.70;;;15.90;58.30;;;;;;5002145;28;20042;-75
2022/04/21 00:26:30;;;;;;;1.15;0.70;;;15.90;58.40;;;;;;5020490;28;20087;-76
2022/04/21 00:28:57;;;;;;;2.55;1.00;;;15.90;58.40;;;;;;5013246;28;20057;-75
2022/04/21 00:31:23;;;;;;;1.00;0.65;;;15.90;58.40;;;;;;5023042;28;20041;-75
2022/04/21 00:33:50;;;;;;;1.23;0.75;;;15.90;58.40;;;;;;5022500;28;20140;-75
2022/04/21 00:36:27;;;;;;;1.30;0.73;;;15.90;58.40;;;;;;5014059;28;22724;-75
2022/04/21 00:39:04;;;;;;;1.38;0.70;;;15.90;58.40;;;;;;5022237;28;20056;-76
2022/04/21 00:41:33;;;;;;;1.58;0.70;;;15.90;58.40;;;;;;5016758;28;20039;-75
2022/04/21 00:44:07;;;;;;;0.93;0.60;;;15.90;58.40;;;;;;5017309;28;20227;-76
2022/04/21 00:46:38;;;;;;;1.35;0.70;;;15.90;58.40;;;;;;5021896;28;20500;-75
2022/04/21 00:49:07;;;;;;;1.30;0.80;;;15.90;58.50;;;;;;5018890;28;20049;-75
2022/04/21 00:51:38;;;;;;;1.27;0.60;;;15.90;58.50;;;;;;5001555;28;20042;-76
2022/04/21 00:54:08;;;;;;;1.98;0.75;;;15.90;58.50;;;;;;5002713;28;20123;-75
2022/04/21 00:56:35;;;;;;;1.23;0.60;;;15.90;58.50;;;;;;5018108;28;20034;-75
2022/04/21 00:59:08;;;;;;;1.52;0.68;;;15.90;58.50;;;;;;5013180;28;20050;-76
2022/04/21 01:04:30;;;;;;;1.58;0.80;;;15.90;58.50;;;;;;4999495;28;20455;-75
2022/04/21 01:07:02;;;;;;;1.00;0.60;;;15.90;58.40;;;;;;5019968;28;20107;-75
2022/04/21 01:09:38;;;;;;;2.33;0.80;;;15.90;58.40;;;;;;5000347;28;20041;-75
2022/04/21 01:12:10;;;;;;;2.03;0.70;;;15.80;58.40;;;;;;5016338;28;20041;-75
2022/04/21 01:14:38;;;;;;;2.35;0.88;;;15.90;58.50;;;;;;5014213;28;20133;-75
2022/04/21 01:17:05;;;;;;;0.98;0.60;;;15.90;58.50;;;;;;5022600;28;20077;-76
2022/04/21 01:19:33;;;;;;;1.38;0.80;;;15.80;58.40;;;;;;5019548;28;20038;-75
2022/04/21 01:22:01;;;;;;;1.67;0.90;;;15.90;58.50;;;;;;5018219;28;20451;-75
2022/04/21 01:24:38;;;;;;;1.30;0.80;;;15.90;58.50;;;;;;4982262;28;20033;-75
2022/04/21 01:27:07;;;;;;;1.88;0.90;;;15.90;58.50;;;;;;5013830;28;20049;-75
2022/04/21 01:29:34;;;;;;;1.25;0.75;;;15.90;58.50;;;;;;5007445;28;20397;-75
2022/04/21 01:32:07;;;;;;;1.70;0.77;;;15.90;58.50;;;;;;5011998;28;20580;-74
2022/04/21 01:34:41;;;;;;;1.40;0.85;;;15.90;58.50;;;;;;5019657;28;20046;-73
2022/04/21 01:42:49;;;;;;;1.25;0.77;;;15.90;58.50;;;;;;5015156;28;20041;-75
2022/04/21 01:45:17;;;;;;;3.05;1.00;;;15.80;58.50;;;;;;5021244;28;20045;-74
2022/04/21 01:47:56;;;;;;;1.30;0.70;;;15.80;58.50;;;;;;5017305;28;20065;-75
2022/04/21 01:50:35;;;;;;;1.00;0.65;;;15.90;58.50;;;;;;5029071;28;20145;-75
2022/04/21 01:53:04;;;;;;;1.35;0.77;;;15.80;58.40;;;;;;5025907;28;20041;-75
2022/04/21 01:55:35;;;;;;;1.67;0.85;;;15.80;58.50;;;;;;5025887;28;20644;-75
2022/04/21 01:58:08;;;;;;;1.83;0.80;;;15.80;58.50;;;;;;5018389;28;20037;-75
2022/04/21 02:00:35;;;;;;;2.60;1.15;;;15.90;58.50;;;;;;5020059;28;20477;-75
2022/04/21 02:03:07;;;;;;;1.90;0.90;;;15.80;58.50;;;;;;5020285;28;20041;-75
2022/04/21 02:05:37;;;;;;;1.10;0.70;;;15.80;58.50;;;;;;5016888;28;20650;-76
2022/04/21 02:08:09;;;;;;;1.42;0.77;;;15.80;58.40;;;;;;5013731;28;20117;-74
2022/04/21 02:10:36;;;;;;;1.65;0.73;;;15.80;58.40;;;;;;5006983;28;20057;-75
2022/04/21 02:13:07;;;;;;;1.38;0.80;;;15.90;58.50;;;;;;5021459;28;20045;-76
2022/04/21 02:15:44;;;;;;;1.17;0.77;;;15.80;58.40;;;;;;5017888;28;20163;-76
2022/04/21 02:18:20;;;;;;;1.92;0.88;;;15.80;58.40;;;;;;5013279;28;20081;-75
2022/04/21 02:21:05;;;;;;;1.40;0.90;;;15.80;58.40;;;;;;5017392;28;20579;-76
2022/04/21 02:23:41;;;;;;;1.13;0.70;;;15.80;58.40;;;;;;5020287;28;20038;-76
2022/04/21 02:26:08;;;;;;;1.90;0.80;;;15.80;58.40;;;;;;5001271;28;20045;-75
2022/04/21 02:28:42;;;;;;;2.38;0.85;;;15.80;58.40;;;;;;5021785;28;20041;-75
2022/04/21 02:31:25;;;;;;;1.58;0.77;;;15.80;58.30;;;;;;5018659;28;20037;-76
2022/04/21 02:33:59;;;;;;;0.98;0.70;;;15.80;58.30;;;;;;5015651;28;20099;-75
2022/04/21 02:36:33;;;;;;;1.70;1.02;;;15.80;58.30;;;;;;5020044;28;20181;-75
2022/04/21 02:39:08;;;;;;;1.30;0.80;;;15.70;58.30;;;;;;5012362;28;20171;-75
2022/04/21 02:41:35;;;;;;;2.95;0.88;;;15.80;58.40;;;;;;5016352;28;20515;-76
2022/04/21 02:44:05;;;;;;;1.77;0.77;;;15.80;58.30;;;;;;4991283;28;20810;-75
2022/04/21 02:46:45;;;;;;;1.27;0.70;;;15.80;58.30;;;;;;5016020;28;20477;-76
2022/04/21 02:49:20;;;;;;;1.48;0.80;;;15.80;58.30;;;;;;5014709;28;20054;-76
2022/04/21 02:52:06;;;;;;;2.13;0.90;;;15.80;58.30;;;;;;5014831;28;20068;-76
2022/04/21 02:57:23;;;;;;;1.02;0.60;;;15.80;58.30;;;;;;5015058;28;20045;-75
2022/04/21 02:59:54;;;;;;;1.65;0.70;;;15.80;58.40;;;;;;5016199;28;20460;-75
2022/04/21 03:02:24;;;;;;;1.50;0.77;;;15.80;58.30;;;;;;5007193;28;20069;-75
2022/04/21 03:04:52;;;;;;;1.30;0.85;;;15.80;58.30;;;;;;5018534;28;20041;-75
2022/04/21 03:07:27;;;;;;;1.35;0.80;;;15.80;58.30;;;;;;5011997;28;20553;-75
2022/04/21 03:09:56;;;;;;;1.73;0.90;;;15.80;58.30;;;;;;5016721;28;20049;-76
2022/04/21 03:12:28;;;;;;;1.63;0.80;;;15.80;58.30;;;;;;4995148;28;20039;-75
2022/04/21 03:14:57;;;;;;;1.20;0.82;;;15.70;58.20;;;;;;5011991;28;20045;-75
2022/04/21 03:17:24;;;;;;;1.55;0.90;;;15.70;58.30;;;;;;5016807;28;20473;-75
2022/04/21 03:19:53;;;;;;;2.22;0.80;;;15.70;58.20;;;;;;5000100;28;20123;-75
2022/04/21 03:25:11;;;;;;;1.42;0.70;;;15.80;58.30;;;;;;5016427;28;20049;-75
2022/04/21 03:27:38;;;;;;;1.60;0.73;;;15.70;58.20;;;;;;5009706;28;20041;-75
2022/04/21 03:30:08;;;;;;;1.77;0.93;;;15.70;58.20;;;;;;5018922;28;20045;-75
2022/04/21 03:32:46;;;;;;;2.20;0.90;;;15.80;58.30;;;;;;5017915;28;20047;-75
2022/04/21 03:35:14;;;;;;;2.25;1.00;;;15.80;58.30;;;;;;5016173;28;20041;-75
2022/04/21 03:37:44;;;;;;;1.95;0.90;;;15.70;58.20;;;;;;5016296;28;20049;-76
2022/04/21 03:40:15;;;;;;;1.20;0.80;;;15.70;58.20;;;;;;5003779;28;20052;-75
2022/04/21 03:42:42;;;;;;;1.83;0.90;;;15.70;58.30;;;;;;5011145;28;20053;-75
2022/04/21 03:45:09;;;;;;;2.47;0.93;;;15.70;58.20;;;;;;5014150;28;20037;-76
2022/04/21 03:47:49;;;;;;;2.38;0.90;;;15.80;58.30;;;;;;5008293;28;20120;-75
2022/04/21 03:50:16;;;;;;;2.75;0.90;;;15.70;58.20;;;;;;5028456;28;20044;-75
2022/04/21 03:52:49;;;;;;;1.17;0.82;;;15.70;58.20;;;;;;5029999;28;20068;-75
2022/04/21 03:55:17;;;;;;;1.70;1.00;;;15.80;58.30;;;;;;5019524;28;20081;-75
2022/04/21 03:57:44;;;;;;;2.00;0.82;;;15.70;58.20;;;;;;5017441;28;20396;-75
2022/04/21 04:00:23;;;;;;;2.22;0.88;;;15.70;58.30;;;;;;5017302;28;20065;-76
2022/04/21 04:02:49;;;;;;;1.58;0.90;;;15.70;58.30;;;;;;5015457;28;20099;-75
2022/04/21 04:05:23;;;;;;;1.80;0.90;;;15.70;58.30;;;;;;5012404;28;20058;-75
2022/04/21 04:10:53;;;;;;;0.98;0.70;;;15.70;58.30;;;;;;5013094;28;20072;-75
2022/04/21 04:13:36;;;;;;;2.55;0.93;;;15.70;58.30;;;;;;5008165;28;20041;-75
2022/04/21 04:16:09;;;;;;;1.52;0.82;;;15.70;58.30;;;;;;5015302;28;20411;-75
2022/04/21 04:18:42;;;;;;;1.40;0.90;;;15.70;58.30;;;;;;5013896;28;20046;-75
2022/04/21 04:21:22;;;;;;;1.40;0.90;;;15.70;58.30;;;;;;4993419;28;20456;-75
2022/04/21 04:23:51;;;;;;;1.83;0.77;;;15.70;58.40;;;;;;5016856;28;20049;-75
2022/04/21 04:26:19;;;;;;;1.10;0.75;;;15.70;58.40;;;;;;5014966;28;20069;-75
2022/04/21 04:28:47;;;;;;;1.40;0.88;;;15.70;58.40;;;;;;5001003;28;20077;-74
2022/04/21 04:31:33;;;;;;;1.35;0.80;;;15.60;58.40;;;;;;5014960;28;20056;-75
2022/04/21 04:34:01;;;;;;;1.20;0.75;;;15.70;58.50;;;;;;4997458;28;20050;-76
2022/04/21 04:36:36;;;;;;;1.25;0.75;;;15.70;58.50;;;;;;5020762;28;20149;-75
2022/04/21 04:39:07;;;;;;;1.70;0.60;;;15.70;58.50;;;;;;4994862;28;20061;-75
2022/04/21 04:44:32;;;;;;;1.33;0.80;;;15.70;59.10;;;;;;4998519;28;20041;-75
2022/04/21 04:47:06;;;;;;;1.80;0.80;;;15.70;58.60;;;;;;5021300;28;20120;-75
2022/04/21 04:49:33;;;;;;;1.52;0.70;;;15.70;58.60;;;;;;5019455;28;20045;-75
2022/04/21 04:52:04;;;;;;;2.28;0.93;;;15.70;58.60;;;;;;5001357;28;20076;-75
2022/04/21 04:54:38;;;;;;;1.48;0.80;;;15.70;58.60;;;;;;4993928;28;20037;-74
2022/04/21 04:57:08;;;;;;;1.20;0.70;;;15.70;58.60;;;;;;5014157;28;20112;-75
2022/04/21 04:59:44;;;;;;;1.27;0.70;;;15.70;58.60;;;;;;5015270;28;20060;-74
2022/04/21 05:02:30;;;;;;;1.50;0.73;;;15.70;58.60;;;;;;5014293;28;20068;-75
2022/04/21 05:04:57;;;;;;;1.30;0.60;;;15.60;58.50;;;;;;5014563;28;20400;-75
2022/04/21 05:07:43;;;;;;;2.00;0.80;;;15.60;58.60;;;;;;5014970;28;20052;-75
2022/04/21 05:10:10;;;;;;;1.20;0.70;;;15.60;58.60;;;;;;5012113;28;20124;-74
2022/04/21 05:12:44;;;;;;;1.60;0.80;;;15.60;58.60;;;;;;5019441;28;20515;-75
2022/04/21 05:15:15;;;;;;;1.45;0.80;;;15.60;58.50;;;;;;5000304;28;20593;-74
2022/04/21 05:17:45;;;;;;;1.08;0.73;;;15.60;58.60;;;;;;5019473;28;20041;-74
2022/04/21 05:20:31;;;;;;;1.73;0.77;;;15.60;58.50;;;;;;5017464;28;20099;-74
2022/04/21 05:23:05;;;;;;;1.65;1.00;;;15.60;58.50;;;;;;5022334;28;20132;-74
2022/04/21 05:25:49;;;;;;;1.23;0.75;;;15.60;58.50;;;;;;5003078;28;20046;-75
2022/04/21 05:28:24;;;;;;;1.10;0.70;;;15.60;58.50;;;;;;5025228;28;20050;-74
2022/04/21 05:30:58;;;;;;;1.73;0.90;;;15.60;58.60;;;;;;5000584;28;20037;-75
2022/04/21 05:33:27;;;;;;;1.53;0.80;;;15.60;58.40;;;;;;5022736;28;20037;-74
2022/04/21 05:36:06;;;;;;;1.50;0.90;;;15.60;58.30;;;;;;5005798;28;20056;-74
2022/04/21 05:38:37;;;;;;;1.13;0.70;;;15.60;58.40;;;;;;5008543;28;20042;-75
2022/04/21 05:41:08;;;;;;;1.27;0.77;;;15.60;58.40;;;;;;5025419;28;20722;-74
2022/04/21 05:43:40;;;;;;;1.30;0.70;;;15.60;58.50;;;;;;5020023;28;20115;-75
2022/04/21 05:46:08;;;;;;;1.20;0.70;;;15.60;58.50;;;;;;5028909;28;20516;-74
2022/04/21 05:48:41;;;;;;;1.35;0.65;;;15.60;58.60;;;;;;5034077;28;20042;-75
2022/04/21 05:51:09;;;;;;;1.35;0.75;;;15.60;58.50;;;;;;5027195;28;20578;-74
2022/04/21 05:53:48;;;;;;;1.17;0.70;;;15.60;58.50;;;;;;5020264;28;20494;-75
2022/04/21 05:56:17;;;;;;;2.45;0.75;;;15.60;58.50;;;;;;5020638;28;20045;-75
2022/04/21 05:58:52;;;;;;;2.03;0.80;;;15.60;58.50;;;;;;5018277;28;20041;-74
2022/04/21 06:01:23;;;;;;;1.83;0.80;;;15.60;58.50;;;;;;5021668;28;20057;-74
2022/04/21 06:03:51;;;;;;;1.52;0.82;;;15.60;58.40;;;;;;5018568;28;20041;-74
2022/04/21 06:06:18;;;;;;;1.40;0.70;;;15.60;58.30;;;;;;5024380;28;20057;-74
2022/04/21 06:08:51;;;;;;;3.10;1.00;;;15.50;58.20;;;;;;5038071;28;20044;-74
2022/04/21 06:11:17;;;;;;;1.75;0.80;;;15.60;58.30;;;;;;5023746;28;20545;-74
2022/04/21 06:13:44;;;;;;;2.55;0.80;;;15.60;58.30;;;;;;5019466;28;20037;-75
2022/04/21 06:16:13;;;;;;;1.80;0.88;;;15.60;58.20;;;;;;5018282;28;20069;-75
2022/04/21 06:18:40;;;;;;;2.03;0.90;;;15.60;58.20;;;;;;5021923;28;20041;-75
2022/04/21 06:21:07;;;;;;;1.65;0.88;;;15.60;58.20;;;;;;5030171;28;20046;-75
2022/04/21 06:23:37;;;;;;;1.60;1.00;;;15.60;58.20;;;;;;5003395;28;20509;-76
2022/04/21 06:26:08;;;;;;;1.23;0.80;;;15.60;58.20;;;;;;5016722;28;20049;-75
2022/04/21 06:28:35;;;;;;;1.30;0.80;;;15.60;58.20;;;;;;5019655;28;20049;-74
2022/04/21 06:31:07;;;;;;;1.35;0.80;;;15.60;58.20;;;;;;5000887;28;20046;-75
2022/04/21 06:33:35;;;;;;;1.70;0.80;;;15.60;58.20;;;;;;5021728;28;20144;-75
2022/04/21 06:36:07;;;;;;;1.88;0.90;;;15.60;58.20;;;;;;5020128;28;20044;-75
2022/04/21 06:38:38;;;;;;;1.25;0.80;;;15.60;58.20;;;;;;5024165;28;20120;-75
2022/04/21 06:41:08;;;;;;;1.40;0.90;;;15.60;58.20;;;;;;5020684;28;20045;-78
2022/04/21 06:49:15;;;;;;;32.00;3.40;;;15.30;55.90;;;;;;5019905;28;20056;-79
2022/04/21 06:51:44;;;;;;;23.15;3.03;;;15.20;55.80;;;;;;5019454;28;20058;-79
2022/04/21 06:54:20;;;;;;;11.13;2.50;;;15.20;55.90;;;;;;5019911;28;20041;-79
2022/04/21 06:56:48;;;;;;;6.88;2.63;;;15.10;55.50;;;;;;5021003;28;20080;-79
2022/04/21 06:59:23;;;;;;;5.88;2.90;;;15.10;55.40;;;;;;5004905;28;20124;-80
2022/04/21 07:01:56;;;;;;;7.38;2.45;;;15.00;55.50;;;;;;5007517;28;20049;-79
2022/04/21 07:04:27;;;;;;;6.10;2.83;;;15.00;55.60;;;;;;5020657;28;20064;-80
2022/04/21 07:06:53;;;;;;;4.38;2.70;;;14.90;55.50;;;;;;5020483;28;20041;-81
2022/04/21 07:09:21;;;;;;;13.18;2.80;;;14.90;55.70;;;;;;5017868;28;20037;-79
2022/04/21 07:11:47;;;;;;;5.30;2.75;;;14.90;55.80;;;;;;5019394;28;20523;-80
2022/04/21 07:14:14;;;;;;;4.88;2.50;;;14.90;55.80;;;;;;5023367;28;20132;-80
2022/04/21 07:16:41;;;;;;;5.97;2.67;;;14.90;55.80;;;;;;5017579;28;20042;-79
2022/04/21 07:19:08;;;;;;;6.30;2.53;;;15.00;55.90;;;;;;5008428;28;20087;-78
2022/04/21 07:21:46;;;;;;;5.45;2.35;;;15.10;56.10;;;;;;5011712;28;20045;-83
2022/04/21 07:24:13;;;;;;;5.65;2.50;;;15.20;56.40;;;;;;5021179;28;20087;-80
2022/04/21 07:26:39;;;;;;;6.15;2.38;;;15.20;56.30;;;;;;5014022;28;20405;-78
2022/04/21 07:29:07;;;;;;;4.25;2.15;;;15.20;56.20;;;;;;5026636;28;20041;-86
2022/04/21 07:31:42;;;;;;;4.30;2.30;;;15.20;56.30;;;;;;5015879;28;20037;-82
2022/04/21 07:34:08;;;;;;;7.72;2.25;;;15.20;56.20;;;;;;5003717;28;20045;-80
2022/04/21 07:36:35;;;;;;;6.18;2.40;;;15.20;56.10;;;;;;5002580;28;20042;-79
2022/04/21 07:39:04;;;;;;;7.25;3.00;;;15.10;56.10;;;;;;5020530;28;20060;-80
2022/04/21 07:41:34;;;;;;;8.55;2.28;;;15.10;56.30;;;;;;5021098;28;20043;-77
2022/04/21 07:44:04;;;;;;;9.13;2.38;;;15.20;56.60;;;;;;5027271;28;20046;-77
2022/04/21 07:46:37;;;;;;;5.17;2.10;;;15.30;56.50;;;;;;5009312;28;20795;-80
2022/04/21 07:55:02;;;;;;;8.10;2.67;;;15.30;56.70;;;;;;5021072;28;20084;-81
2022/04/21 07:57:29;;;;;;;6.03;2.53;;;15.30;56.80;;;;;;5018660;28;20041;-79
2022/04/21 07:59:56;;;;;;;8.82;2.35;;;15.40;56.90;;;;;;5021776;28;20061;-80
2022/04/21 08:02:26;;;;;;;7.78;2.28;;;15.40;57.00;;;;;;4994060;28;20167;-78
2022/04/21 08:04:55;;;;;;;6.03;2.72;;;15.50;57.00;;;;;;4998740;28;20038;-78
2022/04/21 08:07:40;;;;;;;3.88;2.35;;;15.40;56.90;;;;;;5001891;28;20073;-79
2022/04/21 08:10:11;;;;;;;4.53;2.10;;;15.50;57.10;;;;;;4992155;28;20030;-78
2022/04/21 08:12:48;;;;;;;6.35;2.38;;;15.40;57.10;;;;;;5004046;28;20034;-81
2022/04/21 08:15:25;;;;;;;2.85;2.25;;;15.50;57.10;;;;;;4996694;28;20070;-83
2022/04/21 08:17:56;;;;;;;4.00;2.30;;;15.40;57.20;;;;;;5004676;28;20049;-82
2022/04/21 08:20:34;;;;;;;5.07;2.17;;;15.50;57.40;;;;;;5005970;28;20045;-81
2022/04/21 08:23:04;;;;;;;4.05;2.10;;;15.50;57.30;;;;;;5001832;28;20408;-80
2022/04/21 08:33:55;;;;;;;5.28;2.20;;;15.60;57.70;;;;;;5003386;28;20059;-80
2022/04/21 08:36:34;;;;;;;3.90;2.10;;;15.70;57.80;;;;;;5001725;28;20073;-81
2022/04/21 08:39:08;;;;;;;5.72;2.03;;;15.70;57.80;;;;;;5005930;28;20048;-82
2022/04/21 08:41:42;;;;;;;3.85;2.20;;;15.60;57.40;;;;;;5007752;28;20493;-81
2022/04/21 08:44:10;;;;;;;5.60;2.33;;;15.70;57.50;;;;;;5008456;28;20770;-77
2022/04/21 08:46:39;;;;;;;8.23;2.20;;;15.70;57.40;;;;;;5005751;28;20045;-79
2022/04/21 08:49:10;;;;;;;3.88;2.30;;;15.70;57.30;;;;;;5016162;28;20331;-76
2022/04/21 08:51:37;;;;;;;5.28;2.30;;;15.70;57.20;;;;;;5003699;28;20042;-78
2022/04/21 08:54:05;;;;;;;4.13;2.30;;;15.70;57.20;;;;;;5009422;28;20046;-80
2022/04/21 08:56:32;;;;;;;4.45;1.90;;;15.70;57.10;;;;;;5004531;28;20042;-76
2022/04/21 08:59:02;;;;;;;3.45;1.98;;;15.70;57.20;;;;;;5003519;28;20050;-76
2022/04/21 09:01:35;;;;;;;4.53;1.80;;;15.80;57.20;;;;;;5011141;28;20049;-77
2022/04/21 09:04:07;;;;;;;4.32;1.60;;;15.80;56.80;;;;;;5022517;28;20045;-78
2022/04/21 09:06:38;;;;;;;3.28;1.75;;;15.80;57.00;;;;;;5004227;28;20480;-80
2022/04/21 09:09:16;;;;;;;4.32;1.70;;;15.80;56.80;;;;;;5022025;28;20042;-80
2022/04/21 09:11:57;;;;;;;6.03;1.90;;;15.80;56.10;;;;;;5022587;28;20136;-78
2022/04/21 09:14:30;;;;;;;4.05;1.92;;;15.80;54.60;;;;;;5010069;28;20056;-78
2022/04/21 09:17:07;;;;;;;4.47;1.75;;;15.80;54.30;;;;;;5018341;28;20497;-81
2022/04/21 09:19:36;;;;;;;2.90;1.40;;;15.80;52.90;;;;;;5024628;28;20061;-80
2022/04/21 09:22:03;;;;;;;3.97;1.35;;;15.80;54.20;;;;;;5021279;28;20042;-78
2022/04/21 09:24:39;;;;;;;;;;;15.90;55.00;;;;;;5024446;28;20386;-83
2022/04/21 09:27:07;;;;;;;2.53;1.30;;;15.80;54.10;;;;;;5023342;28;19928;-81
2022/04/21 09:29:38;;;;;;;3.65;1.15;;;15.90;53.60;;;;;;5026875;28;20065;-79
2022/04/21 09:32:08;;;;;;;3.55;1.50;;;15.80;54.30;;;;;;5022828;28;20038;-77
2022/04/21 09:34:35;;;;;;;9.43;1.63;;;15.90;54.10;;;;;;5023423;28;20052;-82
2022/04/21 09:37:10;;;;;;;3.45;1.27;;;15.90;53.80;;;;;;5020118;28;20039;-79
2022/04/21 09:39:39;;;;;;;4.82;1.58;;;15.90;53.30;;;;;;5017858;28;20085;-81
2022/04/21 09:42:08;;;;;;;3.25;1.40;;;15.90;53.40;;;;;;5022827;28;20053;-77
2022/04/21 09:47:44;;;;;;;3.15;1.40;;;15.90;53.10;;;;;;5026021;28;20037;-77
2022/04/21 09:50:13;;;;;;;4.90;1.38;;;15.90;52.80;;;;;;5022048;28;20095;-76
2022/04/21 09:53:04;;;;;;;1.83;1.25;;;15.90;51.80;;;;;;5016207;28;20073;-78
2022/04/21 09:55:32;;;;;;;3.28;1.10;;;15.90;52.20;;;;;;4977347;28;20042;-77
2022/04/21 09:58:06;;;;;;;2.58;1.10;;;15.90;53.20;;;;;;5016215;28;20066;-77
2022/04/21 10:00:38;;;;;;;3.92;1.20;;;15.90;52.90;;;;;;5021349;28;20034;-76
2022/04/21 10:03:08;;;;;;;2.67;1.15;;;15.90;52.20;;;;;;5012247;28;20045;-77
2022/04/21 10:05:40;;;;;;;2.10;1.20;;;16.00;53.20;;;;;;4998376;28;20237;-77
2022/04/21 10:08:10;;;;;;;5.80;1.40;;;16.00;53.10;;;;;;5020248;28;20557;-76
2022/04/21 10:10:38;;;;;;;4.15;1.40;;;16.00;53.10;;;;;;5022409;28;20041;-77
2022/04/21 10:13:08;;;;;;;2.63;1.25;;;16.00;53.00;;;;;;5011056;28;20126;-77
2022/04/21 10:15:39;;;;;;;4.20;1.30;;;16.00;52.80;;;;;;5020197;28;20052;-77
2022/04/21 10:18:08;;;;;;;3.65;1.20;;;16.00;52.90;;;;;;5028135;28;20084;-77
2022/04/21 10:20:37;;;;;;;3.20;1.20;;;16.00;52.70;;;;;;5023520;28;20495;-77
2022/04/21 10:23:14;;;;;;;6.32;1.23;;;16.00;52.40;;;;;;5018520;28;20233;-77
2022/04/21 10:25:42;;;;;;;6.50;1.40;;;16.00;52.80;;;;;;5002147;28;20577;-77
2022/04/21 10:28:40;;;;;;;8.30;1.40;;;16.10;52.70;;;;;;5019758;28;20038;-77
2022/04/21 10:31:29;;;;;;;6.10;1.52;;;16.10;52.70;;;;;;4954971;28;20035;-77
2022/04/21 10:34:05;;;;;;;6.63;1.42;;;16.10;52.40;;;;;;5022346;28;20072;-76
2022/04/21 10:36:37;;;;;;;4.55;1.30;;;16.10;52.40;;;;;;5017619;28;20103;-76
2022/04/21 10:39:27;;;;;;;4.97;1.25;;;16.10;52.70;;;;;;4999768;28;20124;-77
2022/04/21 10:42:18;;;;;;;6.65;1.20;;;16.20;52.50;;;;;;5017936;28;20502;-75
2022/04/21 10:44:49;;;;;;;3.20;1.17;;;16.20;52.60;;;;;;4996942;28;20064;-76
2022/04/21 10:47:36;;;;;;;6.18;1.30;;;16.20;52.70;;;;;;5021257;28;20041;-77
2022/04/21 10:50:15;;;;;;;6.82;1.25;;;16.20;52.80;;;;;;5002354;28;20041;-76
2022/04/21 10:58:49;;;;;;;3.05;1.20;;;16.30;52.90;;;;;;5001804;28;20069;-77
2022/04/21 11:01:34;;;;;;;5.68;1.23;;;16.10;52.70;;;;;;5021760;28;20050;-74
2022/04/21 11:04:22;;;;;;;8.65;1.30;;;16.20;52.70;;;;;;5014642;28;20042;-75
2022/04/21 11:06:52;;;;;;;2.55;1.17;;;16.20;52.90;;;;;;5032392;28;20482;-75
2022/04/21 11:09:48;;;;;;;2.47;1.30;;;16.20;52.60;;;;;;5020464;28;20037;-75
2022/04/21 11:12:38;;;;;;;2.83;1.23;;;16.30;52.80;;;;;;5016103;28;20072;-75
2022/04/21 11:15:32;;;;;;;3.10;1.23;;;16.30;52.50;;;;;;5021034;28;20038;-74
2022/04/21 11:18:02;;;;;;;2.15;1.15;;;16.30;52.70;;;;;;5016049;28;20119;-75
2022/04/21 11:20:31;;;;;;;5.55;1.55;;;16.30;52.70;;;;;;5009880;28;20053;-76
2022/04/21 11:22:58;;;;;;;6.70;1.30;;;16.30;52.50;;;;;;5020617;28;20045;-76
2022/04/21 11:25:33;;;;;;;4.00;1.20;;;16.40;52.40;;;;;;5013054;28;20839;-75
2022/04/21 11:28:09;;;;;;;4.25;1.10;;;16.30;52.00;;;;;;5018501;28;20144;-75
2022/04/21 11:30:36;;;;;;;7.68;1.33;;;16.30;52.30;;;;;;5025649;28;20064;-75
2022/04/21 11:33:11;;;;;;;3.67;1.40;;;16.30;52.40;;;;;;5002859;28;20559;-75
2022/04/21 11:35:39;;;;;;;6.22;1.40;;;16.30;52.30;;;;;;5022361;28;20037;-75
2022/04/21 11:38:07;;;;;;;4.15;1.30;;;16.30;52.10;;;;;;5013507;28;20082;-75
2022/04/21 11:40:46;;;;;;;3.90;1.00;;;16.30;52.20;;;;;;5009833;28;20052;-76
2022/04/21 11:43:18;;;;;;;3.30;1.27;;;16.30;52.30;;;;;;5033802;28;20044;-75
2022/04/21 11:45:56;;;;;;;1.85;0.88;;;16.30;52.50;;;;;;5025406;28;20044;-75
2022/04/21 11:48:28;;;;;;;3.55;1.13;;;16.30;52.60;;;;;;5018559;28;20104;-75
2022/04/21 11:50:58;;;;;;;2.20;1.00;;;16.30;52.70;;;;;;5002801;28;20099;-74
2022/04/21 11:53:34;;;;;;;4.72;1.27;;;16.30;52.70;;;;;;5019190;28;20081;-75
2022/04/21 11:56:01;;;;;;;5.68;1.20;;;16.30;52.20;;;;;;5015867;28;20099;-75
2022/04/21 11:58:40;;;;;;;4.50;1.38;;;16.30;51.90;;;;;;5022926;28;20049;-75
2022/04/21 12:06:48;;;;;;;3.70;1.23;;;16.30;51.30;;;;;;5023606;28;20064;-75
2022/04/21 12:09:33;;;;;;;4.18;1.30;;;16.20;51.20;;;;;;5020699;28;20059;-73
2022/04/21 12:12:05;;;;;;;4.10;1.20;;;16.30;51.70;;;;;;5016604;28;20053;-74
2022/04/21 12:14:41;;;;;;;6.63;1.20;;;16.20;51.90;;;;;;5009256;28;20454;-76
2022/04/21 12:17:10;;;;;;;3.75;1.30;;;16.30;51.20;;;;;;5026882;28;20492;-76
2022/04/21 12:19:39;;;;;;;6.45;1.58;;;16.30;51.20;;;;;;5025214;28;20045;-73
2022/04/21 12:22:08;;;;;;;5.53;1.40;;;16.30;51.30;;;;;;5018804;28;20091;-79
2022/04/21 12:24:37;;;;;;;13.35;1.70;;;16.40;50.70;;;;;;5023514;28;20037;-75
2022/04/21 12:27:14;;;;;;;9.85;1.80;;;16.40;50.90;;;;;;5024170;28;20049;-75
2022/04/21 12:29:50;;;;;;;8.18;1.45;;;16.30;50.80;;;;;;4997132;28;20049;-75
2022/04/21 12:32:30;;;;;;;9.15;1.42;;;16.30;51.10;;;;;;5019392;28;20044;-73
2022/04/21 12:35:04;;;;;;;8.45;1.92;;;16.30;51.90;;;;;;5026162;28;20041;-72
2022/04/21 12:37:33;;;;;;;4.47;1.60;;;16.30;51.40;;;;;;5001851;28;20095;-73
2022/04/21 12:40:04;;;;;;;8.43;1.45;;;16.30;51.40;;;;;;5021018;28;20057;-74
2022/04/21 12:42:34;;;;;;;;;;;16.30;51.80;;;;;;5027311;28;20049;-73
2022/04/21 12:45:04;;;;;;;7.55;1.65;;;16.30;51.70;;;;;;5021730;28;19943;-73
2022/04/21 12:47:43;;;;;;;5.55;1.58;;;16.40;51.50;;;;;;5027609;28;20037;-73
2022/04/21 12:50:18;;;;;;;4.28;1.65;;;16.40;51.10;;;;;;5022491;28;20047;-73
2022/04/21 12:53:01;;;;;;;4.07;1.80;;;16.40;51.50;;;;;;5022420;28;20516;-75
2022/04/21 12:55:29;;;;;;;12.35;1.83;;;16.40;51.50;;;;;;5019947;28;20045;-73
2022/04/21 12:58:09;;;;;;;8.88;1.80;;;16.40;52.00;;;;;;5026091;28;20033;-74
2022/04/21 13:00:40;;;;;;;10.45;1.77;;;16.40;52.00;;;;;;5021403;28;20045;-73
2022/04/21 13:03:10;;;;;;;7.25;1.60;;;16.40;52.00;;;;;;5023302;28;20049;-74
2022/04/21 13:05:45;;;;;;;8.25;1.60;;;16.40;52.30;;;;;;5024645;28;20056;-74
2022/04/21 13:08:23;;;;;;;10.77;1.40;;;16.40;52.50;;;;;;5009833;28;20041;-73
2022/04/21 13:10:51;;;;;;;18.13;1.88;;;16.40;52.60;;;;;;5027057;28;20124;-75
2022/04/21 13:13:19;;;;;;;15.15;2.03;;;16.40;52.50;;;;;;5023517;28;20045;-74
2022/04/21 13:15:47;;;;;;;16.55;1.60;;;16.40;52.60;;;;;;5022948;28;20034;-73
2022/04/21 13:18:15;;;;;;;9.98;1.50;;;16.40;52.70;;;;;;5008693;28;20101;-74
2022/04/21 13:23:28;;;;;;;7.65;1.30;;;16.40;53.00;;;;;;5026998;28;20044;-74
2022/04/21 13:26:07;;;;;;;7.25;1.20;;;16.40;53.10;;;;;;5021216;28;20090;-74
2022/04/21 13:28:35;;;;;;;10.68;1.30;;;16.40;53.20;;;;;;5014896;28;20041;-74
2022/04/21 13:33:54;;;;;;;5.55;1.30;;;16.40;53.20;;;;;;5021400;28;20049;-74
2022/04/21 13:36:36;;;;;;;7.38;1.40;;;16.40;53.30;;;;;;5020064;28;20052;-75
2022/04/21 13:39:06;;;;;;;8.82;1.13;;;16.40;53.40;;;;;;5023010;28;20141;-73
2022/04/21 13:41:32;;;;;;;3.00;1.10;;;16.40;53.50;;;;;;5030298;28;20480;-74
2022/04/21 13:44:08;;;;;;;5.25;1.00;;;16.40;53.50;;;;;;5026779;28;20053;-74
2022/04/21 13:46:35;;;;;;;4.10;1.10;;;16.40;53.50;;;;;;5025582;28;20044;-75
2022/04/21 13:49:08;;;;;;;2.63;1.02;;;16.40;53.50;;;;;;5007562;28;20148;-74
2022/04/21 13:51:36;;;;;;;2.92;0.90;;;16.40;53.50;;;;;;5020081;28;20124;-75
2022/04/21 13:54:03;;;;;;;3.92;1.10;;;16.40;53.50;;;;;;5012039;28;20091;-75
2022/04/21 13:56:44;;;;;;;5.45;1.00;;;16.40;53.60;;;;;;5015774;28;20045;-74
2022/04/21 13:59:23;;;;;;;3.53;1.20;;;16.40;53.70;;;;;;5001443;28;20168;-74
2022/04/21 14:01:50;;;;;;;2.08;0.90;;;16.40;53.70;;;;;;5001669;28;20743;-74
2022/04/21 14:04:28;;;;;;;2.08;0.90;;;16.50;53.80;;;;;;5018947;28;20147;-74
2022/04/21 14:06:55;;;;;;;2.25;1.20;;;16.40;53.70;;;;;;5020675;28;20041;-73
2022/04/21 14:09:25;;;;;;;5.13;1.02;;;16.50;53.90;;;;;;5022255;28;20103;-74
2022/04/21 14:12:06;;;;;;;3.03;0.85;;;16.40;53.80;;;;;;5032900;28;20407;-75
2022/04/21 14:14:33;;;;;;;2.97;1.05;;;16.40;53.90;;;;;;5031036;28;20045;-74